Time;durP1;ratioP1;P1;durP2;ratioP2;P2;SDS_P1;SDS_P2;PMS_P1;PMS_P2;Temp;Humidity;BMP_temperature;BMP_pressure;BME280_temperature;BME280_humidity;BME280_pressure;Samples;Min_cycle;Max_cycle;Signal;HPM_P1;HPM_P2
2022/05/20 00:01:17;;;;;;;8.68;5.32;;;18.70;99.90;;;;;;5052736;28;20240;-58
2022/05/20 00:03:44;;;;;;;8.35;5.38;;;18.80;99.90;;;;;;5054231;28;20650;-57
2022/05/20 00:06:11;;;;;;;6.07;4.32;;;18.80;99.90;;;;;;5053849;28;20201;-57
2022/05/20 00:08:38;;;;;;;8.27;4.78;;;18.70;99.90;;;;;;5053523;28;20205;-57
2022/05/20 00:11:05;;;;;;;10.05;5.35;;;18.70;99.90;;;;;;5053689;28;20236;-58
2022/05/20 00:13:32;;;;;;;14.68;5.75;;;18.70;99.90;;;;;;5053710;28;20232;-57
2022/05/20 00:16:00;;;;;;;6.97;5.28;;;18.70;99.90;;;;;;5053692;28;20232;-57
2022/05/20 00:18:27;;;;;;;8.90;5.43;;;18.70;99.90;;;;;;5053572;28;20272;-57
2022/05/20 00:20:54;;;;;;;8.82;5.07;;;18.70;99.90;;;;;;5053538;28;20605;-57
2022/05/20 00:23:21;;;;;;;5.50;4.88;;;18.60;99.90;;;;;;5053992;28;20241;-57
2022/05/20 00:25:47;;;;;;;7.03;5.32;;;18.60;99.90;;;;;;5053617;28;20209;-57
2022/05/20 00:28:15;;;;;;;6.65;4.95;;;18.50;99.90;;;;;;5053460;28;20209;-57
2022/05/20 00:30:42;;;;;;;7.68;5.32;;;18.50;99.90;;;;;;5053770;28;20229;-57
2022/05/20 00:33:10;;;;;;;7.05;5.03;;;18.50;99.90;;;;;;5054063;28;20730;-57
2022/05/20 00:35:37;;;;;;;9.20;5.13;;;18.50;99.90;;;;;;5054550;28;20221;-57
2022/05/20 00:38:04;;;;;;;7.07;5.10;;;18.30;99.90;;;;;;5054385;28;20251;-57
2022/05/20 00:40:34;;;;;;;9.15;5.15;;;18.30;99.90;;;;;;5053770;28;20603;-56
2022/05/20 00:43:17;;;;;;;6.93;5.10;;;18.20;99.90;;;;;;5053559;28;20665;-57
2022/05/20 00:45:46;;;;;;;9.10;4.70;;;18.20;99.90;;;;;;5053315;28;20201;-57
2022/05/20 00:48:14;;;;;;;8.48;4.82;;;18.10;99.90;;;;;;5053184;28;20296;-57
2022/05/20 00:50:47;;;;;;;6.45;5.15;;;18.10;99.90;;;;;;5053392;28;20229;-57
2022/05/20 00:53:18;;;;;;;6.43;5.50;;;18.10;99.90;;;;;;5053343;28;20210;-58
2022/05/20 00:55:45;;;;;;;9.40;4.82;;;18.00;99.90;;;;;;5053330;28;20221;-58
2022/05/20 00:58:19;;;;;;;7.88;5.75;;;17.90;99.90;;;;;;5052915;28;20213;-58
2022/05/20 01:00:50;;;;;;;6.55;5.35;;;17.90;99.90;;;;;;5053155;28;20225;-58
2022/05/20 01:03:21;;;;;;;7.32;5.13;;;17.90;99.90;;;;;;5053041;28;20206;-57
2022/05/20 01:05:50;;;;;;;8.48;4.82;;;17.80;99.90;;;;;;5052916;28;20209;-57
2022/05/20 01:08:20;;;;;;;6.88;5.00;;;17.80;99.90;;;;;;5052597;28;20213;-58
2022/05/20 01:10:47;;;;;;;11.15;4.63;;;17.80;99.90;;;;;;5052788;28;20648;-58
2022/05/20 01:13:18;;;;;;;5.63;4.78;;;17.80;99.90;;;;;;5052339;28;20205;-58
2022/05/20 01:15:45;;;;;;;8.73;5.00;;;17.60;99.90;;;;;;5052671;28;20228;-58
2022/05/20 01:18:13;;;;;;;5.50;4.28;;;17.60;99.90;;;;;;5052678;28;20205;-57
2022/05/20 01:20:45;;;;;;;5.70;4.90;;;17.50;99.90;;;;;;5052625;28;20278;-58
2022/05/20 01:23:15;;;;;;;6.22;4.63;;;17.50;99.90;;;;;;5052559;28;20218;-58
2022/05/20 01:25:44;;;;;;;6.65;4.90;;;17.50;99.90;;;;;;5052478;28;20205;-57
2022/05/20 01:28:11;;;;;;;10.90;4.60;;;17.60;99.90;;;;;;5052338;28;20331;-58
2022/05/20 01:30:41;;;;;;;7.38;4.72;;;17.70;99.90;;;;;;5052540;28;20226;-58
2022/05/20 01:33:08;;;;;;;7.07;4.63;;;17.70;99.90;;;;;;5052435;28;20260;-57
2022/05/20 01:35:38;;;;;;;7.13;4.95;;;17.60;99.90;;;;;;5052319;28;20221;-58
2022/05/20 01:38:05;;;;;;;6.35;4.63;;;17.70;99.90;;;;;;5051958;28;20685;-58
2022/05/20 01:40:41;;;;;;;7.93;4.82;;;17.60;99.90;;;;;;5052693;28;20287;-58
2022/05/20 01:43:13;;;;;;;6.32;4.55;;;17.60;99.90;;;;;;5052357;28;20614;-58
2022/05/20 01:45:46;;;;;;;7.88;4.93;;;17.60;99.90;;;;;;5052203;28;20228;-58
2022/05/20 01:48:19;;;;;;;12.25;4.63;;;17.50;99.90;;;;;;5051914;28;20692;-57
2022/05/20 01:50:50;;;;;;;7.70;4.57;;;17.50;99.90;;;;;;5052081;28;20795;-57
2022/05/20 01:53:23;;;;;;;5.90;4.90;;;17.50;99.90;;;;;;5052232;28;20258;-57
2022/05/20 01:55:57;;;;;;;5.38;4.47;;;17.40;99.90;;;;;;5052153;28;20256;-58
2022/05/20 01:58:28;;;;;;;6.88;5.00;;;17.50;99.90;;;;;;5051848;28;20206;-57
2022/05/20 02:00:59;;;;;;;9.02;4.78;;;17.50;99.90;;;;;;5052233;28;20237;-57
2022/05/20 02:03:30;;;;;;;8.50;4.35;;;17.50;99.90;;;;;;5052313;28;20209;-57
2022/05/20 02:06:03;;;;;;;9.35;4.95;;;17.50;99.90;;;;;;5051981;28;20662;-58
2022/05/20 02:08:34;;;;;;;5.05;4.07;;;17.60;99.90;;;;;;5051754;28;20256;-58
2022/05/20 02:11:07;;;;;;;7.53;4.78;;;17.60;99.90;;;;;;5052220;28;20241;-58
2022/05/20 02:13:37;;;;;;;8.45;4.63;;;17.50;99.90;;;;;;5051725;28;20217;-58
2022/05/20 02:16:09;;;;;;;6.05;4.72;;;17.70;99.90;;;;;;5052060;28;20229;-57
2022/05/20 02:18:40;;;;;;;6.72;4.68;;;17.70;99.90;;;;;;5052069;28;20209;-57
2022/05/20 02:21:13;;;;;;;7.28;4.93;;;17.70;99.90;;;;;;5052135;28;20230;-57
2022/05/20 02:23:44;;;;;;;5.28;4.78;;;17.70;99.90;;;;;;5051124;28;20208;-57
2022/05/20 02:26:16;;;;;;;7.30;4.38;;;17.80;99.90;;;;;;5051623;28;20205;-57
2022/05/20 02:28:46;;;;;;;7.32;4.45;;;17.70;99.90;;;;;;5051668;28;20206;-57
2022/05/20 02:31:19;;;;;;;6.30;4.55;;;17.60;99.90;;;;;;5051809;28;20229;-57
2022/05/20 02:33:45;;;;;;;5.73;4.20;;;17.70;99.90;;;;;;5051885;28;20205;-58
2022/05/20 02:36:19;;;;;;;6.45;4.60;;;17.80;99.90;;;;;;5051370;28;20676;-58
2022/05/20 02:38:45;;;;;;;10.15;4.55;;;17.80;99.90;;;;;;5051322;28;20263;-58
2022/05/20 02:41:13;;;;;;;6.93;5.07;;;17.70;99.90;;;;;;5052016;28;20225;-58
2022/05/20 02:43:40;;;;;;;6.53;4.55;;;17.80;99.90;;;;;;5051463;28;20669;-59
2022/05/20 02:46:08;;;;;;;4.85;4.35;;;17.80;99.90;;;;;;5051598;28;20204;-57
2022/05/20 02:48:35;;;;;;;8.10;4.60;;;17.80;99.90;;;;;;5051371;28;20240;-57
2022/05/20 02:51:02;;;;;;;5.60;4.55;;;17.70;99.90;;;;;;5051323;28;20225;-57
2022/05/20 02:53:28;;;;;;;8.07;4.60;;;17.70;99.90;;;;;;5051632;28;20213;-59
2022/05/20 02:55:56;;;;;;;9.43;4.40;;;17.70;99.90;;;;;;5051335;28;20221;-57
2022/05/20 03:04:12;;;;;;;5.28;4.78;;;17.70;99.90;;;;;;5051376;28;20208;-58
2022/05/20 03:06:41;;;;;;;8.98;4.57;;;17.70;99.90;;;;;;5051376;28;20209;-58
2022/05/20 03:09:09;;;;;;;6.05;4.50;;;17.70;99.90;;;;;;5051054;28;20297;-57
2022/05/20 03:11:39;;;;;;;8.18;4.38;;;17.70;99.90;;;;;;5051040;28;20234;-57
2022/05/20 03:14:09;;;;;;;5.88;4.43;;;17.60;99.90;;;;;;5051163;28;20263;-58
2022/05/20 03:16:36;;;;;;;6.03;4.65;;;17.60;99.90;;;;;;5051135;28;20329;-57
2022/05/20 03:19:04;;;;;;;8.05;4.90;;;17.60;99.90;;;;;;5051204;28;20202;-57
2022/05/20 03:21:31;;;;;;;5.53;4.60;;;17.60;99.90;;;;;;5051050;28;20226;-58
2022/05/20 03:23:59;;;;;;;7.38;4.40;;;17.50;99.90;;;;;;5051118;28;20213;-58
2022/05/20 03:26:26;;;;;;;7.22;4.85;;;17.60;99.90;;;;;;5050882;28;20224;-58
2022/05/20 03:28:53;;;;;;;8.82;4.78;;;17.60;99.90;;;;;;5051011;28;20236;-58
2022/05/20 03:31:21;;;;;;;6.35;4.63;;;17.70;99.90;;;;;;5050967;28;20229;-58
2022/05/20 03:33:48;;;;;;;6.53;4.80;;;17.60;99.90;;;;;;5051109;28;20201;-58
2022/05/20 03:36:15;;;;;;;10.38;4.70;;;17.50;99.90;;;;;;5053512;28;20275;-57
2022/05/20 03:38:41;;;;;;;5.38;4.35;;;17.50;99.90;;;;;;5054635;28;20628;-57
2022/05/20 03:41:08;;;;;;;6.07;4.72;;;17.40;99.90;;;;;;5055150;28;20225;-57
2022/05/20 03:43:35;;;;;;;6.55;4.57;;;17.50;99.90;;;;;;5054811;28;20202;-57
2022/05/20 03:46:01;;;;;;;7.05;4.93;;;17.50;99.90;;;;;;5054300;28;20216;-57
2022/05/20 03:48:30;;;;;;;11.43;5.20;;;17.50;99.90;;;;;;5054150;28;20217;-56
2022/05/20 03:50:57;;;;;;;6.75;4.93;;;17.50;99.90;;;;;;5054487;28;20221;-58
2022/05/20 03:53:24;;;;;;;9.25;4.90;;;17.60;99.90;;;;;;5054304;28;20263;-56
2022/05/20 03:55:50;;;;;;;6.07;4.18;;;17.70;99.90;;;;;;5054715;28;20208;-57
2022/05/20 03:58:17;;;;;;;9.25;4.70;;;17.70;99.90;;;;;;5054143;28;20229;-57
2022/05/20 04:03:29;;;;;;;6.65;5.03;;;17.60;99.90;;;;;;5054719;28;20209;-57
2022/05/20 04:05:57;;;;;;;6.80;4.20;;;17.70;99.90;;;;;;5054043;28;20206;-57
2022/05/20 04:08:23;;;;;;;9.02;4.60;;;17.70;99.90;;;;;;5054010;28;20209;-57
2022/05/20 04:10:53;;;;;;;6.75;4.20;;;17.70;99.90;;;;;;5054022;28;20237;-57
2022/05/20 04:13:21;;;;;;;7.10;4.30;;;17.80;99.90;;;;;;5054187;28;20209;-57
2022/05/20 04:15:48;;;;;;;10.75;4.70;;;17.80;99.90;;;;;;5053990;28;20674;-58
2022/05/20 04:18:15;;;;;;;6.85;4.65;;;17.80;99.90;;;;;;5053855;28;20221;-58
2022/05/20 04:20:43;;;;;;;7.65;4.15;;;17.90;99.90;;;;;;5054085;28;20736;-58
2022/05/20 04:23:09;;;;;;;6.88;4.45;;;18.00;99.90;;;;;;5054637;28;20275;-57
2022/05/20 04:25:36;;;;;;;8.52;4.22;;;18.10;99.90;;;;;;5054135;28;20206;-57
2022/05/20 04:28:03;;;;;;;9.05;4.85;;;18.10;99.90;;;;;;5053956;28;20575;-56
2022/05/20 04:30:30;;;;;;;7.18;4.30;;;18.10;99.90;;;;;;5053790;28;20288;-57
2022/05/20 04:32:56;;;;;;;5.95;4.80;;;18.20;99.90;;;;;;5053853;28;20213;-57
2022/05/20 04:35:24;;;;;;;7.57;4.70;;;18.30;99.90;;;;;;5053829;28;20217;-58
2022/05/20 04:37:52;;;;;;;7.82;4.45;;;18.50;99.90;;;;;;5053479;28;20233;-57
2022/05/20 04:40:19;;;;;;;6.25;4.47;;;18.40;99.90;;;;;;5053696;28;20221;-57
2022/05/20 04:48:11;;;;;;;6.20;4.25;;;18.40;99.90;;;;;;5052577;28;20201;-57
2022/05/20 04:50:39;;;;;;;8.60;4.90;;;18.50;99.90;;;;;;5053465;28;20259;-57
2022/05/20 04:53:08;;;;;;;7.80;4.38;;;18.60;99.90;;;;;;5053513;28;20635;-58
2022/05/20 04:55:33;;;;;;;8.25;4.40;;;18.70;99.90;;;;;;5053157;28;20210;-58
2022/05/20 04:58:00;;;;;;;7.40;4.45;;;18.80;99.90;;;;;;5052643;28;20226;-58
2022/05/20 05:00:31;;;;;;;5.95;4.03;;;19.00;99.90;;;;;;5052658;28;20724;-58
2022/05/20 05:02:59;;;;;;;9.93;4.07;;;19.00;99.90;;;;;;5053027;28;20704;-58
2022/05/20 05:05:28;;;;;;;6.40;4.10;;;19.20;99.90;;;;;;5053208;28;20205;-57
2022/05/20 05:07:57;;;;;;;7.15;4.18;;;19.50;99.90;;;;;;5052671;28;20205;-57
2022/05/20 05:10:27;;;;;;;6.68;3.78;;;19.80;99.90;;;;;;5053021;28;20299;-59
2022/05/20 05:12:54;;;;;;;5.95;4.13;;;20.00;99.90;;;;;;5052680;28;20268;-59
2022/05/20 05:15:21;;;;;;;6.93;4.10;;;20.20;99.90;;;;;;5052544;28;20693;-57
2022/05/20 05:20:33;;;;;;;4.57;3.83;;;20.70;99.90;;;;;;5052521;28;20220;-57
2022/05/20 05:23:00;;;;;;;5.95;3.88;;;21.00;99.90;;;;;;5052494;28;20214;-57
2022/05/20 05:25:30;;;;;;;5.13;3.45;;;21.20;99.90;;;;;;5052855;28;20278;-57
2022/05/20 05:27:57;;;;;;;6.50;3.80;;;21.70;99.90;;;;;;5052415;28;20224;-57
2022/05/20 05:30:24;;;;;;;7.05;3.78;;;22.70;99.90;;;;;;5052414;28;20232;-58
2022/05/20 05:32:51;;;;;;;4.70;3.63;;;23.60;99.90;;;;;;5052376;28;20809;-57
2022/05/20 05:35:21;;;;;;;6.63;3.70;;;24.80;99.90;;;;;;5052344;28;20208;-57
2022/05/20 05:37:48;;;;;;;6.20;3.60;;;26.10;99.90;;;;;;5051999;28;20638;-58
2022/05/20 05:40:17;;;;;;;4.30;3.00;;;27.40;99.90;;;;;;5052370;28;20229;-57
2022/05/20 05:42:46;;;;;;;6.10;3.28;;;28.30;99.90;;;;;;5052307;28;20339;-57
2022/05/20 05:45:16;;;;;;;4.85;3.00;;;29.10;99.90;;;;;;5052359;28;20593;-58
2022/05/20 05:47:43;;;;;;;4.97;3.10;;;29.50;99.90;;;;;;5052378;28;20209;-57
2022/05/20 05:50:10;;;;;;;6.15;2.97;;;29.70;99.90;;;;;;5051745;28;20277;-57
2022/05/20 05:52:37;;;;;;;3.13;2.83;;;29.80;99.90;;;;;;5052323;28;20206;-58
2022/05/20 05:55:04;;;;;;;4.80;2.50;;;29.80;99.90;;;;;;5052420;28;20213;-57
2022/05/20 05:57:31;;;;;;;4.43;2.72;;;30.10;99.90;;;;;;5051849;28;20638;-58
2022/05/20 05:59:59;;;;;;;3.90;2.83;;;30.40;99.90;;;;;;5050767;28;20225;-58
2022/05/20 06:02:25;;;;;;;4.88;2.40;;;30.70;99.90;;;;;;5051807;28;20656;-58
2022/05/20 06:04:52;;;;;;;4.28;2.90;;;30.90;99.90;;;;;;5051584;28;20270;-56
2022/05/20 06:07:19;;;;;;;7.20;3.40;;;31.00;99.80;;;;;;5051663;28;20669;-56
2022/05/20 06:09:46;;;;;;;10.35;3.10;;;31.40;98.80;;;;;;5051256;28;20263;-56
2022/05/20 06:12:14;;;;;;;6.25;2.58;;;32.00;97.20;;;;;;5051612;28;20623;-56
2022/05/20 06:14:41;;;;;;;6.50;3.08;;;32.20;96.00;;;;;;5051769;28;20212;-56
2022/05/20 06:17:12;;;;;;;6.07;3.10;;;32.40;95.30;;;;;;5051505;28;20787;-56
2022/05/20 06:19:39;;;;;;;4.85;3.08;;;32.80;95.20;;;;;;5051501;28;20230;-56
2022/05/20 06:22:06;;;;;;;7.75;3.33;;;33.10;93.90;;;;;;5051376;28;20209;-56
2022/05/20 06:24:33;;;;;;;4.45;3.05;;;33.30;93.20;;;;;;5051566;28;20212;-57
2022/05/20 06:27:00;;;;;;;4.90;3.00;;;33.60;92.30;;;;;;5051659;28;20201;-56
2022/05/20 06:29:27;;;;;;;5.70;2.70;;;33.80;90.40;;;;;;5051181;28;20212;-57
2022/05/20 06:31:53;;;;;;;7.03;2.75;;;33.50;90.40;;;;;;5051323;28;20205;-57
2022/05/20 06:34:21;;;;;;;5.10;2.85;;;33.40;90.40;;;;;;5051662;28;20585;-57
2022/05/20 06:39:50;;;;;;;4.20;2.53;;;33.60;88.80;;;;;;5051223;28;20208;-57
2022/05/20 06:42:19;;;;;;;3.65;2.72;;;33.80;87.80;;;;;;5051399;28;20214;-57
2022/05/20 06:44:46;;;;;;;4.85;2.67;;;34.20;86.10;;;;;;5051740;28;20217;-57
2022/05/20 06:47:13;;;;;;;5.28;2.40;;;34.60;84.70;;;;;;5051329;28;20230;-57
2022/05/20 06:49:41;;;;;;;4.03;2.75;;;35.00;82.80;;;;;;5051211;28;20315;-57
2022/05/20 06:52:08;;;;;;;4.72;2.70;;;35.30;80.20;;;;;;5051213;28;20259;-57
2022/05/20 06:54:34;;;;;;;7.85;2.67;;;35.50;79.70;;;;;;5051148;28;20205;-58
2022/05/20 06:57:01;;;;;;;5.03;2.40;;;35.90;77.30;;;;;;5051170;28;20662;-57
2022/05/20 06:59:28;;;;;;;4.28;2.40;;;36.60;75.60;;;;;;5050952;28;20213;-57
2022/05/20 07:01:55;;;;;;;5.13;3.15;;;37.40;72.30;;;;;;5051299;28;20292;-58
2022/05/20 07:04:21;;;;;;;5.05;2.88;;;37.90;70.90;;;;;;5051528;28;20653;-57
2022/05/20 07:06:50;;;;;;;5.10;2.60;;;38.40;68.90;;;;;;5051228;28;20209;-58
2022/05/20 07:09:16;;;;;;;6.53;2.55;;;38.90;66.60;;;;;;5050795;28;20256;-58
2022/05/20 07:11:43;;;;;;;4.97;2.72;;;39.40;64.00;;;;;;5054892;28;20213;-57
2022/05/20 07:14:10;;;;;;;5.25;2.38;;;40.00;61.30;;;;;;5055064;28;20205;-57
2022/05/20 07:16:36;;;;;;;4.25;2.35;;;40.40;60.10;;;;;;5054807;28;20202;-57
2022/05/20 07:19:03;;;;;;;6.32;2.47;;;40.90;59.30;;;;;;5054473;28;20225;-56
2022/05/20 07:21:30;;;;;;;5.65;2.63;;;41.50;57.90;;;;;;5054813;28;20230;-56
2022/05/20 07:24:00;;;;;;;5.30;2.40;;;41.90;57.50;;;;;;5054563;28;20205;-57
2022/05/20 07:26:27;;;;;;;6.80;2.25;;;42.20;55.20;;;;;;5055103;28;20292;-57
2022/05/20 07:28:54;;;;;;;5.28;2.72;;;42.60;54.00;;;;;;5054561;28;20212;-57
2022/05/20 07:31:23;;;;;;;3.60;2.60;;;42.80;53.10;;;;;;5054652;28;20221;-57
2022/05/20 07:33:50;;;;;;;4.85;2.75;;;42.80;52.00;;;;;;5054709;28;20208;-57
2022/05/20 07:36:17;;;;;;;3.70;2.10;;;42.70;51.60;;;;;;5054483;28;20205;-57
2022/05/20 07:38:44;;;;;;;3.03;2.38;;;42.60;51.90;;;;;;5054450;28;20641;-57
2022/05/20 07:41:13;;;;;;;7.85;2.92;;;42.80;51.00;;;;;;5054571;28;20228;-57
2022/05/20 07:43:40;;;;;;;8.32;2.40;;;43.20;50.30;;;;;;5054302;28;20577;-58
2022/05/20 07:46:07;;;;;;;5.32;3.00;;;43.80;49.40;;;;;;5054191;28;20722;-57
2022/05/20 07:48:34;;;;;;;7.55;2.63;;;44.10;48.90;;;;;;5054055;28;20205;-57
2022/05/20 07:51:04;;;;;;;5.85;2.35;;;44.60;48.50;;;;;;5054171;28;20221;-57
2022/05/20 07:53:35;;;;;;;4.05;2.55;;;44.50;47.50;;;;;;5054154;28;20580;-57
2022/05/20 07:56:06;;;;;;;5.22;2.83;;;44.20;47.60;;;;;;5054138;28;20216;-57
2022/05/20 07:58:37;;;;;;;3.60;2.38;;;43.90;48.30;;;;;;5054012;28;20301;-57
2022/05/20 08:01:04;;;;;;;4.20;3.03;;;43.80;48.70;;;;;;5053881;28;20232;-57
2022/05/20 08:06:18;;;;;;;8.52;2.80;;;44.00;48.80;;;;;;5054086;28;20575;-57
2022/05/20 08:08:45;;;;;;;7.57;2.78;;;44.40;46.90;;;;;;5053898;28;20287;-57
2022/05/20 08:11:11;;;;;;;4.65;2.40;;;44.70;47.40;;;;;;5053803;28;20712;-56
2022/05/20 08:13:39;;;;;;;5.05;2.60;;;44.90;46.30;;;;;;5053955;28;20201;-56
2022/05/20 08:16:07;;;;;;;4.75;2.60;;;45.30;45.10;;;;;;5053422;28;20205;-56
2022/05/20 08:18:34;;;;;;;6.55;2.70;;;45.30;43.30;;;;;;5053332;28;20239;-57
2022/05/20 08:21:00;;;;;;;8.80;2.80;;;45.30;44.10;;;;;;5053494;28;20236;-56
2022/05/20 08:23:27;;;;;;;11.18;2.85;;;45.50;44.00;;;;;;5052951;28;20230;-56
2022/05/20 08:25:54;;;;;;;5.65;2.63;;;45.50;43.20;;;;;;5053307;28;20213;-56
2022/05/20 08:28:21;;;;;;;7.38;2.80;;;45.70;43.50;;;;;;5053193;28;20208;-57
2022/05/20 08:30:49;;;;;;;4.13;2.53;;;45.50;42.50;;;;;;5053441;28;20224;-57
2022/05/20 08:33:16;;;;;;;4.50;2.30;;;45.30;43.00;;;;;;5053270;28;20688;-57
2022/05/20 08:35:42;;;;;;;4.75;2.70;;;44.90;43.20;;;;;;5053334;28;20616;-57
2022/05/20 08:38:09;;;;;;;7.15;2.63;;;44.30;43.80;;;;;;5053132;28;20221;-57
2022/05/20 08:40:42;;;;;;;5.70;2.70;;;43.10;44.50;;;;;;5053168;28;20229;-57
2022/05/20 08:43:09;;;;;;;7.68;3.08;;;41.80;46.60;;;;;;5053203;28;20216;-57
2022/05/20 08:45:35;;;;;;;7.07;3.10;;;40.30;48.40;;;;;;5053168;28;20670;-58
2022/05/20 08:48:05;;;;;;;5.47;2.90;;;39.00;50.20;;;;;;5053364;28;20197;-58
2022/05/20 08:50:37;;;;;;;5.43;2.75;;;37.70;51.80;;;;;;5053081;28;20226;-56
2022/05/20 08:53:07;;;;;;;5.20;3.00;;;36.50;53.20;;;;;;5053220;28;20571;-56
2022/05/20 08:55:34;;;;;;;10.20;2.92;;;35.70;54.80;;;;;;5052919;28;20206;-56
2022/05/20 08:58:04;;;;;;;7.63;2.70;;;34.90;55.80;;;;;;5053137;28;20229;-57
2022/05/20 09:00:31;;;;;;;6.28;3.03;;;34.30;57.90;;;;;;5053141;28;20228;-57
2022/05/20 09:02:58;;;;;;;8.68;3.85;;;33.80;58.80;;;;;;5052992;28;20205;-57
2022/05/20 09:05:31;;;;;;;4.00;2.90;;;33.40;59.40;;;;;;5052883;28;20205;-57
2022/05/20 09:08:01;;;;;;;7.50;3.20;;;33.00;60.30;;;;;;5052751;28;20205;-57
2022/05/20 09:10:38;;;;;;;6.68;3.13;;;32.70;61.30;;;;;;5052751;28;20253;-56
2022/05/20 09:13:11;;;;;;;7.75;3.72;;;32.50;62.30;;;;;;5053344;28;20212;-57
2022/05/20 09:15:43;;;;;;;5.93;3.17;;;32.40;64.00;;;;;;5053030;28;20669;-57
2022/05/20 09:18:13;;;;;;;12.20;3.47;;;32.20;65.10;;;;;;5053557;28;20265;-57
2022/05/20 09:20:45;;;;;;;6.35;3.40;;;32.00;65.00;;;;;;5053287;28;20229;-57
2022/05/20 09:23:15;;;;;;;3.53;2.92;;;31.90;66.10;;;;;;5052697;28;20206;-57
2022/05/20 09:25:47;;;;;;;5.68;2.90;;;31.90;65.90;;;;;;5052651;28;20213;-57
2022/05/20 09:28:23;;;;;;;3.65;3.15;;;32.00;64.50;;;;;;5052287;28;20209;-57
2022/05/20 09:30:54;;;;;;;6.43;3.05;;;32.00;66.10;;;;;;5052061;28;20237;-56
2022/05/20 09:33:23;;;;;;;9.32;3.30;;;32.00;65.20;;;;;;5051997;28;20662;-57
2022/05/20 09:35:57;;;;;;;5.70;3.17;;;32.10;61.30;;;;;;5052166;28;20213;-57
2022/05/20 09:38:34;;;;;;;7.45;3.10;;;32.20;61.20;;;;;;5051905;28;20279;-57
2022/05/20 09:41:10;;;;;;;4.78;2.75;;;32.20;62.10;;;;;;5051969;28;20716;-57
2022/05/20 09:43:40;;;;;;;6.65;3.30;;;32.10;61.30;;;;;;5052037;28;20351;-58
2022/05/20 09:46:12;;;;;;;7.05;3.53;;;32.20;61.60;;;;;;5051978;28;20206;-57
2022/05/20 09:48:48;;;;;;;8.18;3.25;;;32.10;62.00;;;;;;5051934;28;20206;-57
2022/05/20 09:51:20;;;;;;;5.47;2.75;;;32.20;62.90;;;;;;5051998;28;20295;-58
2022/05/20 09:54:05;;;;;;;6.03;3.05;;;32.20;61.50;;;;;;5051784;28;20255;-57
2022/05/20 09:56:34;;;;;;;6.78;3.05;;;32.30;61.60;;;;;;5052237;28;20209;-57
2022/05/20 09:59:16;;;;;;;6.38;3.00;;;32.30;61.30;;;;;;5051556;28;20226;-57
2022/05/20 10:01:50;;;;;;;5.10;2.97;;;32.40;60.20;;;;;;5051890;28;20201;-58
2022/05/20 10:04:26;;;;;;;6.00;3.08;;;32.40;60.70;;;;;;5051687;28;20227;-57
2022/05/20 10:06:59;;;;;;;7.70;2.70;;;32.30;59.40;;;;;;5051817;28;20267;-58
2022/05/20 10:09:34;;;;;;;4.43;3.17;;;32.30;59.10;;;;;;5041103;28;20703;-63
2022/05/20 10:12:05;;;;;;;7.30;3.10;;;32.20;57.80;;;;;;5031456;28;20300;-62
2022/05/20 10:14:42;;;;;;;4.60;2.92;;;32.20;58.40;;;;;;5031822;28;20277;-62
2022/05/20 10:17:21;;;;;;;5.18;2.85;;;32.20;58.90;;;;;;5031880;28;20206;-62
2022/05/20 10:19:55;;;;;;;10.27;3.10;;;32.20;59.10;;;;;;5031072;28;20238;-60
2022/05/20 10:22:29;;;;;;;8.18;2.75;;;32.20;58.30;;;;;;5031416;28;20730;-60
2022/05/20 10:25:02;;;;;;;6.07;2.95;;;32.20;58.60;;;;;;5031520;28;20244;-61
2022/05/20 10:27:34;;;;;;;9.27;3.30;;;32.30;58.40;;;;;;5031300;28;20643;-60
2022/05/20 10:32:57;;;;;;;8.55;3.15;;;32.30;58.70;;;;;;5031257;28;20280;-63
2022/05/20 10:35:30;;;;;;;7.18;2.90;;;32.30;58.40;;;;;;5031255;28;20679;-57
2022/05/20 10:38:30;;;;;;;10.63;3.17;;;32.30;58.40;;;;;;5031401;28;20240;-57
2022/05/20 10:41:02;;;;;;;10.07;3.42;;;32.40;58.70;;;;;;5031200;28;20634;-57
2022/05/20 10:49:18;;;;;;;5.03;3.65;;;32.50;59.10;;;;;;5035040;28;20264;-57
2022/05/20 10:52:03;;;;;;;7.22;3.20;;;32.50;58.80;;;;;;5035584;28;20210;-58
2022/05/20 10:54:42;;;;;;;6.63;3.30;;;32.50;58.50;;;;;;5035634;28;20240;-59
2022/05/20 10:57:31;;;;;;;10.02;4.15;;;32.50;58.50;;;;;;5035538;28;20210;-58
2022/05/20 11:00:09;;;;;;;6.57;3.17;;;32.60;59.20;;;;;;5035823;28;20245;-59
2022/05/20 11:03:05;;;;;;;10.32;3.72;;;32.70;59.20;;;;;;5035921;28;20214;-57
2022/05/20 11:06:06;;;;;;;5.40;2.83;;;32.70;58.90;;;;;;5036380;28;20206;-58
2022/05/20 11:08:43;;;;;;;8.00;3.22;;;32.80;58.00;;;;;;5030659;28;20209;-58
2022/05/20 11:11:24;;;;;;;5.45;3.33;;;32.90;57.80;;;;;;5071460;22;20237;-59
2022/05/20 11:14:18;;;;;;;5.72;3.30;;;32.90;58.70;;;;;;5055697;28;20263;-59
2022/05/20 11:17:01;;;;;;;7.25;3.20;;;33.00;58.40;;;;;;5055817;28;20229;-60
2022/05/20 11:19:44;;;;;;;8.07;4.50;;;33.00;58.00;;;;;;5055666;28;20216;-59
2022/05/20 11:22:45;;;;;;;7.35;3.60;;;33.20;58.50;;;;;;5035237;28;20206;-62
2022/05/20 11:25:50;;;;;;;6.38;3.25;;;33.30;57.00;;;;;;4984072;28;20219;-60
2022/05/20 11:28:35;;;;;;;11.38;4.53;;;33.20;55.70;;;;;;5035388;28;20300;-59
2022/05/20 11:31:14;;;;;;;6.50;3.42;;;33.20;55.00;;;;;;5035180;28;20229;-59
2022/05/20 11:34:05;;;;;;;7.60;3.40;;;33.30;54.80;;;;;;5035171;28;20293;-60
2022/05/20 11:36:49;;;;;;;5.60;3.05;;;33.40;53.00;;;;;;5035754;28;20206;-60
2022/05/20 11:39:37;;;;;;;6.82;3.65;;;33.60;52.80;;;;;;5035229;28;20376;-59
2022/05/20 11:42:16;;;;;;;4.70;2.90;;;33.80;52.30;;;;;;5035045;28;20209;-61
2022/05/20 11:45:09;;;;;;;10.15;3.10;;;34.00;52.40;;;;;;5035321;28;20279;-60
2022/05/20 11:47:58;;;;;;;6.18;2.85;;;34.20;52.10;;;;;;5035008;28;20309;-59
2022/05/20 11:50:41;;;;;;;7.90;2.70;;;34.50;51.40;;;;;;5034451;28;20245;-59
2022/05/20 11:53:14;;;;;;;6.65;3.72;;;34.70;51.30;;;;;;5034931;28;20214;-59
2022/05/20 11:55:49;;;;;;;6.95;2.90;;;34.70;51.20;;;;;;5034763;28;20233;-61
2022/05/20 11:58:25;;;;;;;5.03;2.60;;;34.60;50.40;;;;;;5034671;28;20209;-59
2022/05/20 12:00:54;;;;;;;7.07;2.80;;;34.50;50.40;;;;;;5034449;28;20781;-59
2022/05/20 12:03:26;;;;;;;6.13;2.80;;;34.60;50.70;;;;;;5034580;28;20709;-58
2022/05/20 12:05:54;;;;;;;5.80;3.10;;;34.50;51.10;;;;;;5034479;28;20268;-57
2022/05/20 12:08:50;;;;;;;7.50;2.83;;;34.50;50.90;;;;;;5034805;28;20206;-58
2022/05/20 12:11:27;;;;;;;4.55;2.75;;;34.60;50.90;;;;;;5034173;28;20273;-57
2022/05/20 12:14:04;;;;;;;11.70;7.82;;;34.60;50.70;;;;;;5034780;28;20221;-58
2022/05/20 12:16:33;;;;;;;8.60;5.22;;;34.60;50.10;;;;;;5034183;28;20693;-58
2022/05/20 12:24:37;;;;;;;5.60;2.65;;;34.70;50.00;;;;;;5034162;28;20225;-58
2022/05/20 12:27:10;;;;;;;7.57;2.80;;;34.70;49.60;;;;;;5016688;28;20439;-68
2022/05/20 12:30:04;;;;;;;10.00;2.95;;;34.70;49.60;;;;;;5014303;28;20214;-64
2022/05/20 12:32:48;;;;;;;6.07;2.90;;;34.60;50.20;;;;;;5014043;28;20679;-62
2022/05/20 12:35:18;;;;;;;7.35;2.58;;;34.40;49.60;;;;;;5013287;28;20214;-62
2022/05/20 12:38:00;;;;;;;5.47;2.92;;;34.40;49.70;;;;;;5014106;28;20214;-61
2022/05/20 12:40:51;;;;;;;7.53;2.53;;;34.30;50.40;;;;;;5013689;28;20242;-62
2022/05/20 12:43:18;;;;;;;6.38;3.08;;;34.40;49.10;;;;;;5013644;28;20679;-62
2022/05/20 12:45:50;;;;;;;7.38;2.90;;;34.30;49.00;;;;;;5013722;28;20211;-62
2022/05/20 12:48:19;;;;;;;7.13;2.83;;;34.30;48.90;;;;;;5013279;28;20218;-63
2022/05/20 12:50:58;;;;;;;6.80;2.70;;;34.10;48.50;;;;;;5013523;28;20223;-62
2022/05/20 12:53:27;;;;;;;8.55;2.60;;;34.10;49.40;;;;;;5014033;28;20589;-62
2022/05/20 12:55:55;;;;;;;5.45;2.53;;;34.20;48.80;;;;;;5013583;28;20707;-62
2022/05/20 12:58:25;;;;;;;7.30;2.78;;;34.20;48.80;;;;;;5013987;28;20207;-62
2022/05/20 13:00:54;;;;;;;5.72;2.70;;;34.20;49.00;;;;;;5013064;28;20266;-62
2022/05/20 13:03:27;;;;;;;6.75;2.90;;;34.40;49.80;;;;;;5013625;28;20213;-62
2022/05/20 13:05:56;;;;;;;5.95;2.70;;;34.40;49.30;;;;;;5013755;28;20218;-62
2022/05/20 13:08:28;;;;;;;12.85;2.70;;;34.50;49.10;;;;;;5013212;28;20234;-62
2022/05/20 13:10:55;;;;;;;5.60;2.58;;;34.50;49.10;;;;;;5013229;28;20245;-62
2022/05/20 13:13:24;;;;;;;8.35;3.55;;;34.60;48.60;;;;;;5013141;28;20213;-62
2022/05/20 13:15:54;;;;;;;5.43;2.80;;;34.60;49.10;;;;;;5013389;28;20210;-61
2022/05/20 13:18:24;;;;;;;6.57;2.75;;;34.60;49.80;;;;;;5013414;28;20203;-61
2022/05/20 13:20:53;;;;;;;5.80;2.80;;;34.70;49.40;;;;;;5013209;28;20226;-61
2022/05/20 13:23:23;;;;;;;5.95;2.70;;;34.70;48.20;;;;;;5012756;28;20211;-62
2022/05/20 13:25:50;;;;;;;6.75;2.95;;;34.70;48.00;;;;;;5013209;28;20210;-61
2022/05/20 13:28:23;;;;;;;8.38;2.72;;;34.70;47.60;;;;;;5013217;28;20243;-61
2022/05/20 13:30:50;;;;;;;5.65;2.53;;;34.70;47.50;;;;;;5012628;28;20230;-61
2022/05/20 13:33:17;;;;;;;5.03;2.70;;;34.70;47.60;;;;;;5013302;28;20214;-62
2022/05/20 13:35:51;;;;;;;4.65;2.60;;;34.70;48.00;;;;;;5013121;28;20219;-63
2022/05/20 13:38:18;;;;;;;10.60;2.88;;;34.80;47.90;;;;;;5013005;28;20211;-63
2022/05/20 13:40:45;;;;;;;10.32;3.00;;;34.80;47.50;;;;;;5012901;28;20231;-61